sensor_id;sensor_type;location;lat;lon;timestamp;P1;durP1;ratioP1;P2;durP2;ratioP2
22005;SDS011;11167;46.988;15.470;2023-05-29T00:00:39;5.42;;;3.60;;
22005;SDS011;11167;46.988;15.470;2023-05-29T00:02:40;4.70;;;3.70;;
22005;SDS011;11167;46.988;15.470;2023-05-29T00:04:43;4.23;;;3.40;;
22005;SDS011;11167;46.988;15.470;2023-05-29T00:06:44;7.10;;;4.40;;
22005;SDS011;11167;46.988;15.470;2023-05-29T00:08:46;4.65;;;3.72;;
22005;SDS011;11167;46.988;15.470;2023-05-29T00:10:47;5.87;;;3.95;;
22005;SDS011;11167;46.988;15.470;2023-05-29T00:12:48;6.10;;;4.40;;
22005;SDS011;11167;46.988;15.470;2023-05-29T00:14:49;4.70;;;3.65;;
22005;SDS011;11167;46.988;15.470;2023-05-29T00:16:50;6.28;;;3.85;;
22005;SDS011;11167;46.988;15.470;2023-05-29T00:18:52;5.40;;;4.00;;
22005;SDS011;11167;46.988;15.470;2023-05-29T00:20:55;4.65;;;3.70;;
22005;SDS011;11167;46.988;15.470;2023-05-29T00:22:58;5.20;;;3.95;;
22005;SDS011;11167;46.988;15.470;2023-05-29T00:24:59;5.22;;;3.90;;
22005;SDS011;11167;46.988;15.470;2023-05-29T00:27:00;4.70;;;3.60;;
22005;SDS011;11167;46.988;15.470;2023-05-29T00:29:01;4.78;;;3.67;;
22005;SDS011;11167;46.988;15.470;2023-05-29T00:31:02;5.58;;;3.95;;
22005;SDS011;11167;46.988;15.470;2023-05-29T00:33:03;5.10;;;3.67;;
22005;SDS011;11167;46.988;15.470;2023-05-29T00:35:05;4.15;;;3.27;;
22005;SDS011;11167;46.988;15.470;2023-05-29T00:37:07;4.95;;;3.58;;
22005;SDS011;11167;46.988;15.470;2023-05-29T00:39:08;4.78;;;3.52;;
22005;SDS011;11167;46.988;15.470;2023-05-29T00:41:13;4.17;;;3.42;;
22005;SDS011;11167;46.988;15.470;2023-05-29T00:43:15;4.28;;;3.67;;
22005;SDS011;11167;46.988;15.470;2023-05-29T00:45:16;6.00;;;3.62;;
22005;SDS011;11167;46.988;15.470;2023-05-29T00:47:17;5.05;;;4.08;;
22005;SDS011;11167;46.988;15.470;2023-05-29T00:49:18;4.50;;;3.65;;
22005;SDS011;11167;46.988;15.470;2023-05-29T00:51:22;4.80;;;3.87;;
22005;SDS011;11167;46.988;15.470;2023-05-29T00:53:23;6.05;;;3.85;;
22005;SDS011;11167;46.988;15.470;2023-05-29T00:55:24;6.00;;;4.00;;
22005;SDS011;11167;46.988;15.470;2023-05-29T00:57:26;5.33;;;3.85;;
22005;SDS011;11167;46.988;15.470;2023-05-29T00:59:29;4.67;;;3.80;;
22005;SDS011;11167;46.988;15.470;2023-05-29T01:01:32;4.25;;;3.60;;
22005;SDS011;11167;46.988;15.470;2023-05-29T01:03:33;4.83;;;3.42;;
22005;SDS011;11167;46.988;15.470;2023-05-29T01:05:36;6.17;;;3.50;;
22005;SDS011;11167;46.988;15.470;2023-05-29T01:07:37;4.80;;;3.37;;
22005;SDS011;11167;46.988;15.470;2023-05-29T01:09:39;4.95;;;4.20;;
22005;SDS011;11167;46.988;15.470;2023-05-29T01:11:45;6.03;;;3.80;;
22005;SDS011;11167;46.988;15.470;2023-05-29T01:13:57;5.75;;;3.65;;
22005;SDS011;11167;46.988;15.470;2023-05-29T01:16:18;6.03;;;3.90;;
22005;SDS011;11167;46.988;15.470;2023-05-29T01:25:29;5.42;;;4.08;;
22005;SDS011;11167;46.988;15.470;2023-05-29T01:27:38;4.45;;;3.83;;
22005;SDS011;11167;46.988;15.470;2023-05-29T01:29:40;4.65;;;3.55;;
22005;SDS011;11167;46.988;15.470;2023-05-29T01:31:44;4.83;;;3.77;;
22005;SDS011;11167;46.988;15.470;2023-05-29T01:33:53;3.80;;;3.00;;
22005;SDS011;11167;46.988;15.470;2023-05-29T01:35:56;3.65;;;3.35;;
22005;SDS011;11167;46.988;15.470;2023-05-29T01:37:57;4.78;;;3.72;;
22005;SDS011;11167;46.988;15.470;2023-05-29T01:39:58;7.28;;;3.45;;
22005;SDS011;11167;46.988;15.470;2023-05-29T01:42:00;4.85;;;3.52;;
22005;SDS011;11167;46.988;15.470;2023-05-29T01:44:05;4.08;;;3.45;;
22005;SDS011;11167;46.988;15.470;2023-05-29T01:46:09;5.83;;;3.80;;
22005;SDS011;11167;46.988;15.470;2023-05-29T01:48:10;4.20;;;3.35;;
22005;SDS011;11167;46.988;15.470;2023-05-29T01:50:11;4.75;;;3.65;;
22005;SDS011;11167;46.988;15.470;2023-05-29T01:52:15;5.80;;;3.70;;
22005;SDS011;11167;46.988;15.470;2023-05-29T01:54:16;5.45;;;3.33;;
22005;SDS011;11167;46.988;15.470;2023-05-29T01:56:18;5.62;;;3.55;;
22005;SDS011;11167;46.988;15.470;2023-05-29T01:58:20;4.15;;;3.70;;
22005;SDS011;11167;46.988;15.470;2023-05-29T02:00:22;5.90;;;3.65;;
22005;SDS011;11167;46.988;15.470;2023-05-29T02:02:24;5.17;;;3.50;;
22005;SDS011;11167;46.988;15.470;2023-05-29T02:04:25;4.12;;;3.50;;
22005;SDS011;11167;46.988;15.470;2023-05-29T02:06:26;4.30;;;3.70;;
22005;SDS011;11167;46.988;15.470;2023-05-29T02:08:27;4.72;;;3.37;;
22005;SDS011;11167;46.988;15.470;2023-05-29T02:10:28;5.20;;;3.58;;
22005;SDS011;11167;46.988;15.470;2023-05-29T02:12:30;3.98;;;3.47;;
22005;SDS011;11167;46.988;15.470;2023-05-29T02:14:32;4.33;;;3.55;;
22005;SDS011;11167;46.988;15.470;2023-05-29T02:16:33;3.95;;;3.50;;
22005;SDS011;11167;46.988;15.470;2023-05-29T02:18:34;3.77;;;3.27;;
22005;SDS011;11167;46.988;15.470;2023-05-29T02:20:35;3.95;;;3.30;;
22005;SDS011;11167;46.988;15.470;2023-05-29T02:22:36;5.83;;;3.67;;
22005;SDS011;11167;46.988;15.470;2023-05-29T02:24:37;5.22;;;3.60;;
22005;SDS011;11167;46.988;15.470;2023-05-29T02:26:39;5.20;;;3.72;;
22005;SDS011;11167;46.988;15.470;2023-05-29T02:28:41;5.47;;;3.47;;
22005;SDS011;11167;46.988;15.470;2023-05-29T02:30:42;4.28;;;3.52;;
22005;SDS011;11167;46.988;15.470;2023-05-29T02:32:43;4.47;;;3.35;;
22005;SDS011;11167;46.988;15.470;2023-05-29T02:34:44;4.50;;;3.20;;
22005;SDS011;11167;46.988;15.470;2023-05-29T02:36:45;4.45;;;3.80;;
22005;SDS011;11167;46.988;15.470;2023-05-29T02:38:46;5.42;;;3.52;;
22005;SDS011;11167;46.988;15.470;2023-05-29T02:40:47;4.55;;;3.33;;
22005;SDS011;11167;46.988;15.470;2023-05-29T02:42:49;4.17;;;3.75;;
22005;SDS011;11167;46.988;15.470;2023-05-29T02:44:51;5.58;;;3.95;;
22005;SDS011;11167;46.988;15.470;2023-05-29T02:46:52;3.98;;;3.40;;
22005;SDS011;11167;46.988;15.470;2023-05-29T02:48:53;4.87;;;4.10;;
22005;SDS011;11167;46.988;15.470;2023-05-29T02:50:54;5.03;;;4.53;;
22005;SDS011;11167;46.988;15.470;2023-05-29T02:52:55;5.97;;;5.00;;
22005;SDS011;11167;46.988;15.470;2023-05-29T02:54:56;6.65;;;5.25;;
22005;SDS011;11167;46.988;15.470;2023-05-29T02:56:57;7.53;;;5.65;;
22005;SDS011;11167;46.988;15.470;2023-05-29T02:58:58;6.70;;;5.60;;
22005;SDS011;11167;46.988;15.470;2023-05-29T03:00:59;7.58;;;5.45;;
22005;SDS011;11167;46.988;15.470;2023-05-29T03:03:00;6.78;;;5.50;;
22005;SDS011;11167;46.988;15.470;2023-05-29T03:05:02;6.65;;;4.83;;
22005;SDS011;11167;46.988;15.470;2023-05-29T03:07:03;6.12;;;4.87;;
22005;SDS011;11167;46.988;15.470;2023-05-29T03:09:04;5.70;;;4.37;;
22005;SDS011;11167;46.988;15.470;2023-05-29T03:11:10;5.72;;;4.03;;
22005;SDS011;11167;46.988;15.470;2023-05-29T03:13:11;6.55;;;4.12;;
22005;SDS011;11167;46.988;15.470;2023-05-29T03:15:12;5.42;;;4.10;;
22005;SDS011;11167;46.988;15.470;2023-05-29T03:17:14;5.67;;;3.87;;
22005;SDS011;11167;46.988;15.470;2023-05-29T03:21:35;5.30;;;3.87;;
22005;SDS011;11167;46.988;15.470;2023-05-29T03:23:36;4.28;;;3.62;;
22005;SDS011;11167;46.988;15.470;2023-05-29T03:25:37;4.28;;;3.87;;
22005;SDS011;11167;46.988;15.470;2023-05-29T03:27:38;4.50;;;3.58;;
22005;SDS011;11167;46.988;15.470;2023-05-29T03:29:39;4.75;;;3.90;;
22005;SDS011;11167;46.988;15.470;2023-05-29T03:31:41;4.67;;;3.72;;
22005;SDS011;11167;46.988;15.470;2023-05-29T03:33:42;3.95;;;3.55;;
22005;SDS011;11167;46.988;15.470;2023-05-29T03:35:43;6.03;;;3.60;;
22005;SDS011;11167;46.988;15.470;2023-05-29T03:37:44;3.83;;;3.42;;
22005;SDS011;11167;46.988;15.470;2023-05-29T03:39:45;4.17;;;3.30;;
22005;SDS011;11167;46.988;15.470;2023-05-29T03:41:46;5.42;;;3.75;;
22005;SDS011;11167;46.988;15.470;2023-05-29T03:43:48;4.83;;;3.67;;
22005;SDS011;11167;46.988;15.470;2023-05-29T03:45:49;5.95;;;3.58;;
22005;SDS011;11167;46.988;15.470;2023-05-29T03:47:50;6.15;;;3.33;;
22005;SDS011;11167;46.988;15.470;2023-05-29T03:49:51;5.25;;;3.47;;
22005;SDS011;11167;46.988;15.470;2023-05-29T03:51:52;4.67;;;3.60;;
22005;SDS011;11167;46.988;15.470;2023-05-29T03:53:53;4.17;;;3.33;;
22005;SDS011;11167;46.988;15.470;2023-05-29T03:55:54;4.95;;;3.58;;
22005;SDS011;11167;46.988;15.470;2023-05-29T03:57:56;4.40;;;3.52;;
22005;SDS011;11167;46.988;15.470;2023-05-29T03:59:57;5.17;;;3.58;;
22005;SDS011;11167;46.988;15.470;2023-05-29T04:01:57;5.03;;;3.50;;
22005;SDS011;11167;46.988;15.470;2023-05-29T04:03:59;4.22;;;3.47;;
22005;SDS011;11167;46.988;15.470;2023-05-29T04:06:00;5.10;;;3.58;;
22005;SDS011;11167;46.988;15.470;2023-05-29T04:08:01;4.75;;;3.70;;
22005;SDS011;11167;46.988;15.470;2023-05-29T04:10:05;5.03;;;3.52;;
22005;SDS011;11167;46.988;15.470;2023-05-29T04:12:07;3.85;;;3.30;;
22005;SDS011;11167;46.988;15.470;2023-05-29T04:14:08;4.50;;;3.52;;
22005;SDS011;11167;46.988;15.470;2023-05-29T04:16:09;5.03;;;3.83;;
22005;SDS011;11167;46.988;15.470;2023-05-29T04:18:10;5.50;;;3.55;;
22005;SDS011;11167;46.988;15.470;2023-05-29T04:20:11;5.05;;;4.08;;
22005;SDS011;11167;46.988;15.470;2023-05-29T04:22:13;5.42;;;3.30;;
22005;SDS011;11167;46.988;15.470;2023-05-29T04:24:14;5.65;;;3.95;;
22005;SDS011;11167;46.988;15.470;2023-05-29T04:26:15;5.50;;;3.70;;
22005;SDS011;11167;46.988;15.470;2023-05-29T04:28:16;4.37;;;3.80;;
22005;SDS011;11167;46.988;15.470;2023-05-29T04:30:17;4.72;;;3.77;;
22005;SDS011;11167;46.988;15.470;2023-05-29T04:32:19;4.37;;;3.45;;
22005;SDS011;11167;46.988;15.470;2023-05-29T04:34:20;3.77;;;3.12;;
22005;SDS011;11167;46.988;15.470;2023-05-29T04:36:22;4.90;;;3.58;;
22005;SDS011;11167;46.988;15.470;2023-05-29T04:38:26;4.37;;;3.85;;
22005;SDS011;11167;46.988;15.470;2023-05-29T04:40:27;5.47;;;3.70;;
22005;SDS011;11167;46.988;15.470;2023-05-29T04:42:28;4.90;;;3.27;;
22005;SDS011;11167;46.988;15.470;2023-05-29T04:44:31;5.47;;;3.77;;
22005;SDS011;11167;46.988;15.470;2023-05-29T04:46:33;5.25;;;3.77;;
22005;SDS011;11167;46.988;15.470;2023-05-29T04:48:35;4.40;;;3.45;;
22005;SDS011;11167;46.988;15.470;2023-05-29T04:50:36;4.10;;;3.47;;
22005;SDS011;11167;46.988;15.470;2023-05-29T04:52:39;4.83;;;3.70;;
22005;SDS011;11167;46.988;15.470;2023-05-29T04:54:40;4.47;;;3.52;;
22005;SDS011;11167;46.988;15.470;2023-05-29T04:56:41;4.00;;;3.50;;
22005;SDS011;11167;46.988;15.470;2023-05-29T04:58:42;4.92;;;4.00;;
22005;SDS011;11167;46.988;15.470;2023-05-29T05:00:43;4.30;;;3.35;;
22005;SDS011;11167;46.988;15.470;2023-05-29T05:02:45;5.35;;;3.80;;
22005;SDS011;11167;46.988;15.470;2023-05-29T05:04:47;4.95;;;3.77;;
22005;SDS011;11167;46.988;15.470;2023-05-29T05:06:48;4.42;;;3.55;;
22005;SDS011;11167;46.988;15.470;2023-05-29T05:08:49;4.15;;;3.55;;
22005;SDS011;11167;46.988;15.470;2023-05-29T05:10:50;4.90;;;3.42;;
22005;SDS011;11167;46.988;15.470;2023-05-29T05:12:51;5.25;;;3.70;;
22005;SDS011;11167;46.988;15.470;2023-05-29T05:14:53;6.30;;;4.03;;
22005;SDS011;11167;46.988;15.470;2023-05-29T05:16:54;4.87;;;3.58;;
22005;SDS011;11167;46.988;15.470;2023-05-29T05:18:55;4.70;;;3.37;;
22005;SDS011;11167;46.988;15.470;2023-05-29T05:20:56;4.75;;;3.58;;
22005;SDS011;11167;46.988;15.470;2023-05-29T05:22:57;4.70;;;3.67;;
22005;SDS011;11167;46.988;15.470;2023-05-29T05:25:00;5.28;;;3.67;;
22005;SDS011;11167;46.988;15.470;2023-05-29T05:27:01;4.92;;;3.70;;
22005;SDS011;11167;46.988;15.470;2023-05-29T05:29:02;5.47;;;3.52;;
22005;SDS011;11167;46.988;15.470;2023-05-29T05:33:25;4.20;;;3.33;;
22005;SDS011;11167;46.988;15.470;2023-05-29T05:35:25;3.87;;;3.47;;
22005;SDS011;11167;46.988;15.470;2023-05-29T05:37:26;4.22;;;3.58;;
22005;SDS011;11167;46.988;15.470;2023-05-29T05:39:27;3.92;;;3.35;;
22005;SDS011;11167;46.988;15.470;2023-05-29T05:41:29;4.05;;;3.52;;
22005;SDS011;11167;46.988;15.470;2023-05-29T05:43:30;4.37;;;3.67;;
22005;SDS011;11167;46.988;15.470;2023-05-29T05:45:32;5.42;;;3.42;;
22005;SDS011;11167;46.988;15.470;2023-05-29T05:47:33;4.83;;;3.62;;
22005;SDS011;11167;46.988;15.470;2023-05-29T05:49:34;4.40;;;3.62;;
22005;SDS011;11167;46.988;15.470;2023-05-29T05:51:35;4.95;;;4.12;;
22005;SDS011;11167;46.988;15.470;2023-05-29T05:53:36;4.67;;;3.70;;
22005;SDS011;11167;46.988;15.470;2023-05-29T05:55:37;5.35;;;3.62;;
22005;SDS011;11167;46.988;15.470;2023-05-29T05:57:38;5.47;;;3.60;;
22005;SDS011;11167;46.988;15.470;2023-05-29T05:59:39;4.65;;;3.60;;
22005;SDS011;11167;46.988;15.470;2023-05-29T06:01:40;4.40;;;3.72;;
22005;SDS011;11167;46.988;15.470;2023-05-29T06:03:41;4.42;;;3.60;;
22005;SDS011;11167;46.988;15.470;2023-05-29T06:05:42;5.78;;;3.80;;
22005;SDS011;11167;46.988;15.470;2023-05-29T06:07:43;4.28;;;3.80;;
22005;SDS011;11167;46.988;15.470;2023-05-29T06:09:45;5.60;;;3.70;;
22005;SDS011;11167;46.988;15.470;2023-05-29T06:11:45;4.25;;;3.77;;
22005;SDS011;11167;46.988;15.470;2023-05-29T06:13:47;4.28;;;3.70;;
22005;SDS011;11167;46.988;15.470;2023-05-29T06:15:48;4.92;;;3.50;;
22005;SDS011;11167;46.988;15.470;2023-05-29T06:17:49;4.33;;;3.40;;
22005;SDS011;11167;46.988;15.470;2023-05-29T06:19:52;6.05;;;3.80;;
22005;SDS011;11167;46.988;15.470;2023-05-29T06:21:53;3.50;;;3.20;;
22005;SDS011;11167;46.988;15.470;2023-05-29T06:23:54;4.72;;;3.47;;
22005;SDS011;11167;46.988;15.470;2023-05-29T06:25:55;3.95;;;3.55;;
22005;SDS011;11167;46.988;15.470;2023-05-29T06:27:57;4.80;;;3.60;;
22005;SDS011;11167;46.988;15.470;2023-05-29T06:29:58;4.85;;;3.40;;
22005;SDS011;11167;46.988;15.470;2023-05-29T06:31:59;4.58;;;3.70;;
22005;SDS011;11167;46.988;15.470;2023-05-29T06:34:00;4.22;;;3.40;;
22005;SDS011;11167;46.988;15.470;2023-05-29T06:36:01;5.90;;;4.05;;
22005;SDS011;11167;46.988;15.470;2023-05-29T06:38:03;4.97;;;3.62;;
22005;SDS011;11167;46.988;15.470;2023-05-29T06:40:05;5.05;;;3.72;;
22005;SDS011;11167;46.988;15.470;2023-05-29T06:42:07;4.78;;;3.83;;
22005;SDS011;11167;46.988;15.470;2023-05-29T06:44:09;4.42;;;3.50;;
22005;SDS011;11167;46.988;15.470;2023-05-29T06:46:10;4.90;;;3.62;;
22005;SDS011;11167;46.988;15.470;2023-05-29T06:48:11;5.00;;;4.10;;
22005;SDS011;11167;46.988;15.470;2023-05-29T06:50:13;5.10;;;3.90;;
22005;SDS011;11167;46.988;15.470;2023-05-29T06:52:14;4.75;;;3.80;;
22005;SDS011;11167;46.988;15.470;2023-05-29T06:54:16;6.00;;;4.10;;
22005;SDS011;11167;46.988;15.470;2023-05-29T06:56:17;6.08;;;3.83;;
22005;SDS011;11167;46.988;15.470;2023-05-29T06:58:18;4.83;;;4.12;;
22005;SDS011;11167;46.988;15.470;2023-05-29T07:00:19;4.70;;;3.92;;
22005;SDS011;11167;46.988;15.470;2023-05-29T07:02:21;6.50;;;3.95;;
22005;SDS011;11167;46.988;15.470;2023-05-29T07:04:22;5.55;;;4.08;;
22005;SDS011;11167;46.988;15.470;2023-05-29T07:06:23;5.22;;;4.08;;
22005;SDS011;11167;46.988;15.470;2023-05-29T07:08:24;5.30;;;3.90;;
22005;SDS011;11167;46.988;15.470;2023-05-29T07:10:25;5.37;;;3.67;;
22005;SDS011;11167;46.988;15.470;2023-05-29T07:12:26;5.30;;;4.10;;
22005;SDS011;11167;46.988;15.470;2023-05-29T07:14:27;5.92;;;4.30;;
22005;SDS011;11167;46.988;15.470;2023-05-29T07:16:28;5.17;;;3.87;;
22005;SDS011;11167;46.988;15.470;2023-05-29T07:18:29;5.58;;;4.12;;
22005;SDS011;11167;46.988;15.470;2023-05-29T07:20:31;7.10;;;4.50;;
22005;SDS011;11167;46.988;15.470;2023-05-29T07:22:32;6.22;;;3.90;;
22005;SDS011;11167;46.988;15.470;2023-05-29T07:24:33;6.53;;;4.37;;
22005;SDS011;11167;46.988;15.470;2023-05-29T07:26:34;5.60;;;3.87;;
22005;SDS011;11167;46.988;15.470;2023-05-29T07:28:35;6.37;;;4.10;;
22005;SDS011;11167;46.988;15.470;2023-05-29T07:30:36;6.25;;;4.08;;
22005;SDS011;11167;46.988;15.470;2023-05-29T07:32:37;5.70;;;4.35;;
22005;SDS011;11167;46.988;15.470;2023-05-29T07:34:38;5.72;;;4.50;;
22005;SDS011;11167;46.988;15.470;2023-05-29T07:36:55;7.90;;;4.80;;
22005;SDS011;11167;46.988;15.470;2023-05-29T07:39:19;5.85;;;4.08;;
22005;SDS011;11167;46.988;15.470;2023-05-29T07:41:21;5.65;;;4.25;;
22005;SDS011;11167;46.988;15.470;2023-05-29T07:43:22;6.70;;;4.03;;
22005;SDS011;11167;46.988;15.470;2023-05-29T07:45:23;6.17;;;4.20;;
22005;SDS011;11167;46.988;15.470;2023-05-29T07:47:24;6.00;;;3.90;;
22005;SDS011;11167;46.988;15.470;2023-05-29T07:49:25;6.05;;;3.87;;
22005;SDS011;11167;46.988;15.470;2023-05-29T07:51:26;5.70;;;4.33;;
22005;SDS011;11167;46.988;15.470;2023-05-29T07:53:27;5.00;;;3.72;;
22005;SDS011;11167;46.988;15.470;2023-05-29T07:55:29;5.45;;;4.10;;
22005;SDS011;11167;46.988;15.470;2023-05-29T07:57:30;6.83;;;4.12;;
22005;SDS011;11167;46.988;15.470;2023-05-29T07:59:31;5.53;;;3.98;;
22005;SDS011;11167;46.988;15.470;2023-05-29T08:01:33;6.10;;;4.05;;
22005;SDS011;11167;46.988;15.470;2023-05-29T08:03:34;6.22;;;4.33;;
22005;SDS011;11167;46.988;15.470;2023-05-29T08:05:35;5.72;;;4.03;;
22005;SDS011;11167;46.988;15.470;2023-05-29T08:07:37;5.40;;;3.55;;
22005;SDS011;11167;46.988;15.470;2023-05-29T08:09:39;4.97;;;3.70;;
22005;SDS011;11167;46.988;15.470;2023-05-29T08:11:40;5.00;;;3.50;;
22005;SDS011;11167;46.988;15.470;2023-05-29T08:13:41;5.75;;;3.65;;
22005;SDS011;11167;46.988;15.470;2023-05-29T08:15:42;5.30;;;3.72;;
22005;SDS011;11167;46.988;15.470;2023-05-29T08:17:42;5.45;;;4.03;;
22005;SDS011;11167;46.988;15.470;2023-05-29T08:19:44;5.28;;;3.65;;
22005;SDS011;11167;46.988;15.470;2023-05-29T08:21:45;5.58;;;3.92;;
22005;SDS011;11167;46.988;15.470;2023-05-29T08:23:46;6.58;;;3.98;;
22005;SDS011;11167;46.988;15.470;2023-05-29T08:25:47;5.10;;;3.58;;
22005;SDS011;11167;46.988;15.470;2023-05-29T08:27:48;5.33;;;3.92;;
22005;SDS011;11167;46.988;15.470;2023-05-29T08:29:49;5.25;;;3.72;;
22005;SDS011;11167;46.988;15.470;2023-05-29T08:31:51;7.58;;;4.15;;
22005;SDS011;11167;46.988;15.470;2023-05-29T08:33:53;4.50;;;3.50;;
22005;SDS011;11167;46.988;15.470;2023-05-29T08:35:56;6.47;;;3.92;;
22005;SDS011;11167;46.988;15.470;2023-05-29T08:37:58;5.40;;;3.77;;
22005;SDS011;11167;46.988;15.470;2023-05-29T08:40:01;5.50;;;3.62;;
22005;SDS011;11167;46.988;15.470;2023-05-29T08:42:07;8.15;;;4.20;;
22005;SDS011;11167;46.988;15.470;2023-05-29T08:44:10;4.95;;;4.05;;
22005;SDS011;11167;46.988;15.470;2023-05-29T08:46:18;5.72;;;3.90;;
22005;SDS011;11167;46.988;15.470;2023-05-29T08:48:23;5.08;;;3.50;;
22005;SDS011;11167;46.988;15.470;2023-05-29T08:50:27;7.75;;;4.20;;
22005;SDS011;11167;46.988;15.470;2023-05-29T08:52:30;5.20;;;3.72;;
22005;SDS011;11167;46.988;15.470;2023-05-29T08:54:33;5.83;;;3.98;;
22005;SDS011;11167;46.988;15.470;2023-05-29T08:56:36;4.35;;;3.50;;
22005;SDS011;11167;46.988;15.470;2023-05-29T08:58:37;7.72;;;3.90;;
22005;SDS011;11167;46.988;15.470;2023-05-29T09:00:39;5.50;;;3.77;;
22005;SDS011;11167;46.988;15.470;2023-05-29T09:02:41;7.65;;;4.12;;
22005;SDS011;11167;46.988;15.470;2023-05-29T09:04:44;6.15;;;4.28;;
22005;SDS011;11167;46.988;15.470;2023-05-29T09:06:48;7.15;;;3.85;;
22005;SDS011;11167;46.988;15.470;2023-05-29T09:08:52;5.83;;;4.20;;
22005;SDS011;11167;46.988;15.470;2023-05-29T09:10:53;8.60;;;3.92;;
22005;SDS011;11167;46.988;15.470;2023-05-29T09:12:55;5.00;;;3.90;;
22005;SDS011;11167;46.988;15.470;2023-05-29T09:14:57;5.03;;;3.80;;
22005;SDS011;11167;46.988;15.470;2023-05-29T09:16:58;5.30;;;4.08;;
22005;SDS011;11167;46.988;15.470;2023-05-29T09:19:06;5.03;;;4.08;;
22005;SDS011;11167;46.988;15.470;2023-05-29T09:21:07;5.25;;;4.10;;
22005;SDS011;11167;46.988;15.470;2023-05-29T09:23:11;7.35;;;4.15;;
22005;SDS011;11167;46.988;15.470;2023-05-29T09:25:12;5.53;;;4.00;;
22005;SDS011;11167;46.988;15.470;2023-05-29T09:31:45;6.55;;;4.12;;
22005;SDS011;11167;46.988;15.470;2023-05-29T09:33:49;5.20;;;4.00;;
22005;SDS011;11167;46.988;15.470;2023-05-29T09:35:50;4.95;;;3.92;;
22005;SDS011;11167;46.988;15.470;2023-05-29T09:37:52;5.83;;;4.10;;
22005;SDS011;11167;46.988;15.470;2023-05-29T09:39:53;5.97;;;3.90;;
22005;SDS011;11167;46.988;15.470;2023-05-29T09:41:54;6.25;;;4.00;;
22005;SDS011;11167;46.988;15.470;2023-05-29T09:43:55;5.20;;;3.80;;
22005;SDS011;11167;46.988;15.470;2023-05-29T09:45:57;6.25;;;4.22;;
22005;SDS011;11167;46.988;15.470;2023-05-29T09:47:59;5.53;;;4.12;;
22005;SDS011;11167;46.988;15.470;2023-05-29T09:50:00;5.20;;;4.00;;
22005;SDS011;11167;46.988;15.470;2023-05-29T09:52:01;4.58;;;3.58;;
22005;SDS011;11167;46.988;15.470;2023-05-29T09:54:15;5.80;;;3.80;;
22005;SDS011;11167;46.988;15.470;2023-05-29T09:56:17;4.85;;;3.80;;
22005;SDS011;11167;46.988;15.470;2023-05-29T09:58:18;4.78;;;3.70;;
22005;SDS011;11167;46.988;15.470;2023-05-29T10:00:20;5.20;;;3.98;;
22005;SDS011;11167;46.988;15.470;2023-05-29T10:04:43;6.47;;;4.30;;
22005;SDS011;11167;46.988;15.470;2023-05-29T10:06:47;5.28;;;3.98;;
22005;SDS011;11167;46.988;15.470;2023-05-29T10:08:50;5.58;;;3.90;;
22005;SDS011;11167;46.988;15.470;2023-05-29T10:10:56;8.08;;;4.47;;
22005;SDS011;11167;46.988;15.470;2023-05-29T10:12:59;5.53;;;4.03;;
22005;SDS011;11167;46.988;15.470;2023-05-29T10:15:05;4.42;;;4.00;;
22005;SDS011;11167;46.988;15.470;2023-05-29T10:17:11;5.50;;;4.40;;
22005;SDS011;11167;46.988;15.470;2023-05-29T10:19:18;4.78;;;4.00;;
22005;SDS011;11167;46.988;15.470;2023-05-29T10:21:27;5.53;;;4.22;;
22005;SDS011;11167;46.988;15.470;2023-05-29T10:23:29;6.12;;;4.40;;
22005;SDS011;11167;46.988;15.470;2023-05-29T10:25:32;6.05;;;4.03;;
22005;SDS011;11167;46.988;15.470;2023-05-29T10:27:34;6.28;;;4.42;;
22005;SDS011;11167;46.988;15.470;2023-05-29T10:29:58;4.85;;;3.80;;
22005;SDS011;11167;46.988;15.470;2023-05-29T10:32:04;5.70;;;3.87;;
22005;SDS011;11167;46.988;15.470;2023-05-29T10:34:14;4.85;;;3.92;;
22005;SDS011;11167;46.988;15.470;2023-05-29T10:36:21;4.83;;;3.70;;
22005;SDS011;11167;46.988;15.470;2023-05-29T10:38:24;4.85;;;3.85;;
22005;SDS011;11167;46.988;15.470;2023-05-29T10:40:27;4.90;;;3.98;;
22005;SDS011;11167;46.988;15.470;2023-05-29T10:44:49;5.78;;;3.80;;
22005;SDS011;11167;46.988;15.470;2023-05-29T10:49:17;4.67;;;3.87;;
22005;SDS011;11167;46.988;15.470;2023-05-29T10:51:26;5.37;;;4.00;;
22005;SDS011;11167;46.988;15.470;2023-05-29T10:53:31;5.28;;;4.30;;
22005;SDS011;11167;46.988;15.470;2023-05-29T10:55:37;5.40;;;4.25;;
22005;SDS011;11167;46.988;15.470;2023-05-29T10:57:36;5.62;;;4.12;;
22005;SDS011;11167;46.988;15.470;2023-05-29T10:59:41;5.65;;;3.92;;
22005;SDS011;11167;46.988;15.470;2023-05-29T11:01:44;6.72;;;4.00;;
22005;SDS011;11167;46.988;15.470;2023-05-29T11:03:45;4.35;;;3.70;;
22005;SDS011;11167;46.988;15.470;2023-05-29T11:08:08;7.00;;;4.17;;
22005;SDS011;11167;46.988;15.470;2023-05-29T11:10:13;5.35;;;3.90;;
22005;SDS011;11167;46.988;15.470;2023-05-29T11:12:23;5.55;;;4.17;;
22005;SDS011;11167;46.988;15.470;2023-05-29T11:14:28;4.67;;;3.90;;
22005;SDS011;11167;46.988;15.470;2023-05-29T11:18:38;4.95;;;3.83;;
22005;SDS011;11167;46.988;15.470;2023-05-29T11:20:43;5.50;;;4.33;;
22005;SDS011;11167;46.988;15.470;2023-05-29T11:25:06;4.67;;;3.45;;
22005;SDS011;11167;46.988;15.470;2023-05-29T11:27:08;4.97;;;3.90;;
22005;SDS011;11167;46.988;15.470;2023-05-29T11:29:11;5.90;;;3.98;;
22005;SDS011;11167;46.988;15.470;2023-05-29T11:31:14;5.80;;;4.03;;
22005;SDS011;11167;46.988;15.470;2023-05-29T11:33:24;5.60;;;4.10;;
22005;SDS011;11167;46.988;15.470;2023-05-29T11:35:26;4.58;;;3.72;;
22005;SDS011;11167;46.988;15.470;2023-05-29T11:37:31;5.50;;;4.08;;
22005;SDS011;11167;46.988;15.470;2023-05-29T11:39:36;5.47;;;4.10;;
22005;SDS011;11167;46.988;15.470;2023-05-29T11:41:38;6.15;;;4.28;;
22005;SDS011;11167;46.988;15.470;2023-05-29T11:43:39;4.92;;;3.98;;
22005;SDS011;11167;46.988;15.470;2023-05-29T11:45:40;5.30;;;4.17;;
22005;SDS011;11167;46.988;15.470;2023-05-29T11:47:54;5.30;;;4.10;;
22005;SDS011;11167;46.988;15.470;2023-05-29T11:49:57;5.40;;;4.33;;
22005;SDS011;11167;46.988;15.470;2023-05-29T11:54:12;5.33;;;4.20;;
22005;SDS011;11167;46.988;15.470;2023-05-29T11:56:13;4.72;;;4.08;;
22005;SDS011;11167;46.988;15.470;2023-05-29T11:58:14;4.20;;;3.80;;
22005;SDS011;11167;46.988;15.470;2023-05-29T12:00:17;4.78;;;3.98;;
22005;SDS011;11167;46.988;15.470;2023-05-29T12:02:20;4.80;;;4.17;;
22005;SDS011;11167;46.988;15.470;2023-05-29T12:04:23;5.80;;;4.75;;
22005;SDS011;11167;46.988;15.470;2023-05-29T12:06:30;4.53;;;4.08;;
22005;SDS011;11167;46.988;15.470;2023-05-29T12:08:38;5.20;;;4.35;;
22005;SDS011;11167;46.988;15.470;2023-05-29T12:10:50;4.85;;;4.12;;
22005;SDS011;11167;46.988;15.470;2023-05-29T12:12:53;5.90;;;4.25;;
22005;SDS011;11167;46.988;15.470;2023-05-29T12:14:56;5.35;;;4.62;;
22005;SDS011;11167;46.988;15.470;2023-05-29T12:17:01;6.90;;;4.70;;
22005;SDS011;11167;46.988;15.470;2023-05-29T12:19:02;5.37;;;4.03;;
22005;SDS011;11167;46.988;15.470;2023-05-29T12:21:03;5.83;;;4.15;;
22005;SDS011;11167;46.988;15.470;2023-05-29T12:23:04;4.78;;;4.03;;
22005;SDS011;11167;46.988;15.470;2023-05-29T12:25:10;5.40;;;4.30;;
22005;SDS011;11167;46.988;15.470;2023-05-29T12:27:12;4.90;;;4.05;;
22005;SDS011;11167;46.988;15.470;2023-05-29T12:29:13;5.65;;;4.10;;
22005;SDS011;11167;46.988;15.470;2023-05-29T12:31:16;6.20;;;4.33;;
22005;SDS011;11167;46.988;15.470;2023-05-29T12:33:30;5.33;;;4.30;;
22005;SDS011;11167;46.988;15.470;2023-05-29T12:35:31;5.10;;;4.08;;
22005;SDS011;11167;46.988;15.470;2023-05-29T12:37:33;6.08;;;4.20;;